sensor_id;sensor_type;location;lat;lon;timestamp;P1;durP1;ratioP1;P2;durP2;ratioP2
4921;SDS011;16625;53.624;10.106;2023-07-24T00:01:51;5.60;;;4.73;;
4921;SDS011;16625;53.624;10.106;2023-07-24T00:04:18;8.43;;;4.90;;
4921;SDS011;16625;53.624;10.106;2023-07-24T00:06:44;6.63;;;4.97;;
4921;SDS011;16625;53.624;10.106;2023-07-24T00:09:13;7.57;;;4.83;;
4921;SDS011;16625;53.624;10.106;2023-07-24T00:11:39;6.53;;;5.10;;
4921;SDS011;16625;53.624;10.106;2023-07-24T00:14:06;7.33;;;4.60;;
4921;SDS011;16625;53.624;10.106;2023-07-24T00:16:33;6.20;;;4.50;;
4921;SDS011;16625;53.624;10.106;2023-07-24T00:19:00;7.77;;;5.10;;
4921;SDS011;16625;53.624;10.106;2023-07-24T00:21:27;5.67;;;5.07;;
4921;SDS011;16625;53.624;10.106;2023-07-24T00:23:54;8.63;;;5.13;;
4921;SDS011;16625;53.624;10.106;2023-07-24T00:26:22;6.53;;;4.50;;
4921;SDS011;16625;53.624;10.106;2023-07-24T00:28:49;8.60;;;5.50;;
4921;SDS011;16625;53.624;10.106;2023-07-24T00:31:16;7.07;;;4.60;;
4921;SDS011;16625;53.624;10.106;2023-07-24T00:33:43;7.63;;;5.40;;
4921;SDS011;16625;53.624;10.106;2023-07-24T00:36:10;9.70;;;5.37;;
4921;SDS011;16625;53.624;10.106;2023-07-24T00:38:36;4.47;;;3.80;;
4921;SDS011;16625;53.624;10.106;2023-07-24T00:41:03;12.30;;;4.93;;
4921;SDS011;16625;53.624;10.106;2023-07-24T00:43:32;7.77;;;5.20;;
4921;SDS011;16625;53.624;10.106;2023-07-24T00:45:58;18.77;;;6.10;;
4921;SDS011;16625;53.624;10.106;2023-07-24T00:48:26;9.20;;;5.10;;
4921;SDS011;16625;53.624;10.106;2023-07-24T00:50:53;9.50;;;4.67;;
4921;SDS011;16625;53.624;10.106;2023-07-24T00:53:20;6.73;;;4.80;;
4921;SDS011;16625;53.624;10.106;2023-07-24T00:55:47;9.93;;;6.30;;
4921;SDS011;16625;53.624;10.106;2023-07-24T00:58:14;7.43;;;5.47;;
4921;SDS011;16625;53.624;10.106;2023-07-24T01:00:44;8.70;;;5.00;;
4921;SDS011;16625;53.624;10.106;2023-07-24T01:03:11;6.20;;;5.33;;
4921;SDS011;16625;53.624;10.106;2023-07-24T01:05:38;7.23;;;5.57;;
4921;SDS011;16625;53.624;10.106;2023-07-24T01:08:06;7.97;;;5.70;;
4921;SDS011;16625;53.624;10.106;2023-07-24T01:10:33;6.60;;;5.90;;
4921;SDS011;16625;53.624;10.106;2023-07-24T01:13:02;6.03;;;4.90;;
4921;SDS011;16625;53.624;10.106;2023-07-24T01:15:34;8.93;;;5.77;;
4921;SDS011;16625;53.624;10.106;2023-07-24T01:18:06;10.43;;;6.30;;
4921;SDS011;16625;53.624;10.106;2023-07-24T01:20:35;9.03;;;6.13;;
4921;SDS011;16625;53.624;10.106;2023-07-24T01:25:57;7.40;;;5.50;;
4921;SDS011;16625;53.624;10.106;2023-07-24T01:28:25;7.67;;;5.60;;
4921;SDS011;16625;53.624;10.106;2023-07-24T01:30:52;7.50;;;5.97;;
4921;SDS011;16625;53.624;10.106;2023-07-24T01:33:20;7.23;;;5.90;;
4921;SDS011;16625;53.624;10.106;2023-07-24T01:35:49;7.40;;;5.50;;
4921;SDS011;16625;53.624;10.106;2023-07-24T01:38:19;8.57;;;5.63;;
4921;SDS011;16625;53.624;10.106;2023-07-24T01:40:47;7.30;;;5.57;;
4921;SDS011;16625;53.624;10.106;2023-07-24T01:43:15;7.07;;;5.50;;
4921;SDS011;16625;53.624;10.106;2023-07-24T01:45:42;9.50;;;5.27;;
4921;SDS011;16625;53.624;10.106;2023-07-24T01:48:09;7.20;;;5.53;;
4921;SDS011;16625;53.624;10.106;2023-07-24T01:50:36;10.10;;;5.73;;
4921;SDS011;16625;53.624;10.106;2023-07-24T01:53:03;7.60;;;5.27;;
4921;SDS011;16625;53.624;10.106;2023-07-24T01:55:30;8.60;;;5.60;;
4921;SDS011;16625;53.624;10.106;2023-07-24T01:57:56;7.00;;;5.10;;
4921;SDS011;16625;53.624;10.106;2023-07-24T02:00:25;11.80;;;5.80;;
4921;SDS011;16625;53.624;10.106;2023-07-24T02:02:51;7.20;;;5.40;;
4921;SDS011;16625;53.624;10.106;2023-07-24T02:05:18;8.07;;;6.07;;
4921;SDS011;16625;53.624;10.106;2023-07-24T02:07:45;6.00;;;4.87;;
4921;SDS011;16625;53.624;10.106;2023-07-24T02:10:12;6.57;;;5.03;;
4921;SDS011;16625;53.624;10.106;2023-07-24T02:12:39;8.50;;;5.30;;
4921;SDS011;16625;53.624;10.106;2023-07-24T02:15:06;9.17;;;4.93;;
4921;SDS011;16625;53.624;10.106;2023-07-24T02:17:35;8.20;;;6.60;;
4921;SDS011;16625;53.624;10.106;2023-07-24T02:20:02;6.97;;;5.37;;
4921;SDS011;16625;53.624;10.106;2023-07-24T02:22:29;10.17;;;6.73;;
4921;SDS011;16625;53.624;10.106;2023-07-24T02:24:56;9.67;;;6.30;;
4921;SDS011;16625;53.624;10.106;2023-07-24T02:27:26;7.10;;;5.90;;
4921;SDS011;16625;53.624;10.106;2023-07-24T02:29:56;10.43;;;6.00;;
4921;SDS011;16625;53.624;10.106;2023-07-24T02:32:23;10.10;;;6.33;;
4921;SDS011;16625;53.624;10.106;2023-07-24T02:34:51;8.93;;;6.20;;
4921;SDS011;16625;53.624;10.106;2023-07-24T02:37:19;9.27;;;6.80;;
4921;SDS011;16625;53.624;10.106;2023-07-24T02:39:46;7.37;;;6.17;;
4921;SDS011;16625;53.624;10.106;2023-07-24T02:42:12;8.00;;;6.93;;
4921;SDS011;16625;53.624;10.106;2023-07-24T02:44:39;9.47;;;6.90;;
4921;SDS011;16625;53.624;10.106;2023-07-24T02:47:06;10.80;;;8.10;;
4921;SDS011;16625;53.624;10.106;2023-07-24T02:49:33;10.37;;;6.97;;
4921;SDS011;16625;53.624;10.106;2023-07-24T02:52:01;13.33;;;8.53;;
4921;SDS011;16625;53.624;10.106;2023-07-24T02:54:29;11.27;;;6.40;;
4921;SDS011;16625;53.624;10.106;2023-07-24T02:56:55;10.13;;;7.40;;
4921;SDS011;16625;53.624;10.106;2023-07-24T02:59:23;9.20;;;6.77;;
4921;SDS011;16625;53.624;10.106;2023-07-24T03:01:50;13.33;;;8.00;;
4921;SDS011;16625;53.624;10.106;2023-07-24T03:04:17;10.40;;;8.60;;
4921;SDS011;16625;53.624;10.106;2023-07-24T03:06:43;13.87;;;8.10;;
4921;SDS011;16625;53.624;10.106;2023-07-24T03:09:12;10.70;;;8.03;;
4921;SDS011;16625;53.624;10.106;2023-07-24T03:11:39;17.20;;;7.30;;
4921;SDS011;16625;53.624;10.106;2023-07-24T03:14:05;12.13;;;7.70;;
4921;SDS011;16625;53.624;10.106;2023-07-24T03:16:31;11.43;;;7.57;;
4921;SDS011;16625;53.624;10.106;2023-07-24T03:18:58;9.97;;;7.70;;
4921;SDS011;16625;53.624;10.106;2023-07-24T03:21:25;12.70;;;7.13;;
4921;SDS011;16625;53.624;10.106;2023-07-24T03:23:52;12.33;;;7.60;;
4921;SDS011;16625;53.624;10.106;2023-07-24T03:26:20;12.27;;;7.97;;
4921;SDS011;16625;53.624;10.106;2023-07-24T03:28:47;9.63;;;7.57;;
4921;SDS011;16625;53.624;10.106;2023-07-24T03:31:14;10.83;;;7.00;;
4921;SDS011;16625;53.624;10.106;2023-07-24T03:33:41;10.73;;;8.13;;
4921;SDS011;16625;53.624;10.106;2023-07-24T03:36:08;8.70;;;7.47;;
4921;SDS011;16625;53.624;10.106;2023-07-24T03:38:35;8.40;;;6.40;;
4921;SDS011;16625;53.624;10.106;2023-07-24T03:41:01;10.97;;;6.70;;
4921;SDS011;16625;53.624;10.106;2023-07-24T03:43:30;8.97;;;6.67;;
4921;SDS011;16625;53.624;10.106;2023-07-24T03:45:57;10.73;;;7.90;;
4921;SDS011;16625;53.624;10.106;2023-07-24T03:48:23;11.47;;;7.77;;
4921;SDS011;16625;53.624;10.106;2023-07-24T03:50:57;17.50;;;7.73;;
4921;SDS011;16625;53.624;10.106;2023-07-24T03:53:25;8.80;;;6.97;;
4921;SDS011;16625;53.624;10.106;2023-07-24T03:55:52;9.10;;;7.37;;
4921;SDS011;16625;53.624;10.106;2023-07-24T03:58:19;8.73;;;6.90;;
4921;SDS011;16625;53.624;10.106;2023-07-24T04:00:47;8.93;;;7.07;;
4921;SDS011;16625;53.624;10.106;2023-07-24T04:03:15;13.10;;;6.37;;
4921;SDS011;16625;53.624;10.106;2023-07-24T04:05:42;17.90;;;6.93;;
4921;SDS011;16625;53.624;10.106;2023-07-24T04:08:09;9.83;;;7.20;;
4921;SDS011;16625;53.624;10.106;2023-07-24T04:10:35;11.80;;;6.20;;
4921;SDS011;16625;53.624;10.106;2023-07-24T04:13:02;8.87;;;6.30;;
4921;SDS011;16625;53.624;10.106;2023-07-24T04:15:29;9.10;;;6.30;;
4921;SDS011;16625;53.624;10.106;2023-07-24T04:17:58;11.03;;;6.00;;
4921;SDS011;16625;53.624;10.106;2023-07-24T04:20:24;8.50;;;5.50;;
4921;SDS011;16625;53.624;10.106;2023-07-24T04:22:51;11.70;;;6.30;;
4921;SDS011;16625;53.624;10.106;2023-07-24T04:25:18;8.80;;;6.90;;
4921;SDS011;16625;53.624;10.106;2023-07-24T04:27:45;10.47;;;6.33;;
4921;SDS011;16625;53.624;10.106;2023-07-24T04:30:12;8.40;;;6.90;;
4921;SDS011;16625;53.624;10.106;2023-07-24T04:32:39;10.87;;;7.13;;
4921;SDS011;16625;53.624;10.106;2023-07-24T04:35:07;11.27;;;6.37;;
4921;SDS011;16625;53.624;10.106;2023-07-24T04:37:35;8.33;;;5.97;;
4921;SDS011;16625;53.624;10.106;2023-07-24T04:40:01;8.50;;;7.13;;
4921;SDS011;16625;53.624;10.106;2023-07-24T04:42:29;9.50;;;7.30;;
4921;SDS011;16625;53.624;10.106;2023-07-24T04:44:55;13.77;;;7.80;;
4921;SDS011;16625;53.624;10.106;2023-07-24T04:47:22;11.23;;;6.83;;
4921;SDS011;16625;53.624;10.106;2023-07-24T04:49:49;8.97;;;6.80;;
4921;SDS011;16625;53.624;10.106;2023-07-24T04:52:17;7.60;;;6.47;;
4921;SDS011;16625;53.624;10.106;2023-07-24T04:54:44;9.60;;;6.67;;
4921;SDS011;16625;53.624;10.106;2023-07-24T04:57:11;10.20;;;6.53;;
4921;SDS011;16625;53.624;10.106;2023-07-24T04:59:38;11.33;;;6.63;;
4921;SDS011;16625;53.624;10.106;2023-07-24T05:02:05;9.83;;;6.80;;
4921;SDS011;16625;53.624;10.106;2023-07-24T05:04:32;11.60;;;6.53;;
4921;SDS011;16625;53.624;10.106;2023-07-24T05:06:59;12.93;;;6.40;;
4921;SDS011;16625;53.624;10.106;2023-07-24T05:09:27;10.53;;;7.10;;
4921;SDS011;16625;53.624;10.106;2023-07-24T05:11:54;8.93;;;6.60;;
4921;SDS011;16625;53.624;10.106;2023-07-24T05:14:21;11.87;;;7.33;;
4921;SDS011;16625;53.624;10.106;2023-07-24T05:16:48;10.50;;;7.40;;
4921;SDS011;16625;53.624;10.106;2023-07-24T05:19:15;10.17;;;7.00;;
4921;SDS011;16625;53.624;10.106;2023-07-24T05:21:42;8.40;;;5.60;;
4921;SDS011;16625;53.624;10.106;2023-07-24T05:24:08;13.47;;;6.30;;
4921;SDS011;16625;53.624;10.106;2023-07-24T05:26:37;9.10;;;6.00;;
4921;SDS011;16625;53.624;10.106;2023-07-24T05:29:04;8.87;;;6.60;;
4921;SDS011;16625;53.624;10.106;2023-07-24T05:31:31;9.13;;;6.13;;
4921;SDS011;16625;53.624;10.106;2023-07-24T05:33:59;8.27;;;5.93;;
4921;SDS011;16625;53.624;10.106;2023-07-24T05:36:26;8.70;;;6.90;;
4921;SDS011;16625;53.624;10.106;2023-07-24T05:38:53;9.63;;;6.90;;
4921;SDS011;16625;53.624;10.106;2023-07-24T05:41:21;9.63;;;7.23;;
4921;SDS011;16625;53.624;10.106;2023-07-24T05:43:49;9.73;;;6.90;;
4921;SDS011;16625;53.624;10.106;2023-07-24T05:46:16;8.90;;;6.30;;
4921;SDS011;16625;53.624;10.106;2023-07-24T05:48:43;52.60;;;7.30;;
4921;SDS011;16625;53.624;10.106;2023-07-24T05:51:10;11.00;;;6.30;;
4921;SDS011;16625;53.624;10.106;2023-07-24T05:53:37;9.40;;;6.57;;
4921;SDS011;16625;53.624;10.106;2023-07-24T05:56:04;7.93;;;6.07;;
4921;SDS011;16625;53.624;10.106;2023-07-24T05:58:31;10.83;;;6.40;;
4921;SDS011;16625;53.624;10.106;2023-07-24T06:00:59;7.47;;;5.90;;
4921;SDS011;16625;53.624;10.106;2023-07-24T06:03:26;6.87;;;5.43;;
4921;SDS011;16625;53.624;10.106;2023-07-24T06:05:54;8.13;;;6.30;;
4921;SDS011;16625;53.624;10.106;2023-07-24T06:08:22;10.90;;;5.80;;
4921;SDS011;16625;53.624;10.106;2023-07-24T06:10:49;8.10;;;6.47;;
4921;SDS011;16625;53.624;10.106;2023-07-24T06:13:16;8.67;;;6.63;;
4921;SDS011;16625;53.624;10.106;2023-07-24T06:15:44;11.80;;;6.57;;
4921;SDS011;16625;53.624;10.106;2023-07-24T06:18:14;9.40;;;6.43;;
4921;SDS011;16625;53.624;10.106;2023-07-24T06:20:41;7.37;;;5.70;;
4921;SDS011;16625;53.624;10.106;2023-07-24T06:23:08;12.13;;;7.53;;
4921;SDS011;16625;53.624;10.106;2023-07-24T06:25:35;9.50;;;6.57;;
4921;SDS011;16625;53.624;10.106;2023-07-24T06:28:02;11.00;;;5.87;;
4921;SDS011;16625;53.624;10.106;2023-07-24T06:30:29;7.83;;;6.53;;
4921;SDS011;16625;53.624;10.106;2023-07-24T06:32:56;7.67;;;6.50;;
4921;SDS011;16625;53.624;10.106;2023-07-24T06:35:25;8.07;;;6.87;;
4921;SDS011;16625;53.624;10.106;2023-07-24T06:37:51;7.90;;;6.00;;
4921;SDS011;16625;53.624;10.106;2023-07-24T06:40:18;6.70;;;5.93;;
4921;SDS011;16625;53.624;10.106;2023-07-24T06:42:45;7.10;;;6.10;;
4921;SDS011;16625;53.624;10.106;2023-07-24T06:45:12;8.23;;;5.50;;
4921;SDS011;16625;53.624;10.106;2023-07-24T06:47:39;9.27;;;5.90;;
4921;SDS011;16625;53.624;10.106;2023-07-24T06:50:07;7.50;;;5.87;;
4921;SDS011;16625;53.624;10.106;2023-07-24T06:52:35;12.40;;;6.50;;
4921;SDS011;16625;53.624;10.106;2023-07-24T06:55:02;11.97;;;6.30;;
4921;SDS011;16625;53.624;10.106;2023-07-24T06:57:30;6.67;;;5.77;;
4921;SDS011;16625;53.624;10.106;2023-07-24T06:59:57;8.43;;;5.20;;
4921;SDS011;16625;53.624;10.106;2023-07-24T07:02:24;7.50;;;6.10;;
4921;SDS011;16625;53.624;10.106;2023-07-24T07:04:51;7.30;;;5.90;;
4921;SDS011;16625;53.624;10.106;2023-07-24T07:07:17;7.17;;;5.53;;
4921;SDS011;16625;53.624;10.106;2023-07-24T07:09:46;7.17;;;5.60;;
4921;SDS011;16625;53.624;10.106;2023-07-24T07:12:13;8.33;;;6.30;;
4921;SDS011;16625;53.624;10.106;2023-07-24T07:14:40;8.70;;;6.00;;
4921;SDS011;16625;53.624;10.106;2023-07-24T07:17:07;7.03;;;5.77;;
4921;SDS011;16625;53.624;10.106;2023-07-24T07:19:34;7.07;;;6.37;;
4921;SDS011;16625;53.624;10.106;2023-07-24T07:22:01;7.53;;;5.90;;
4921;SDS011;16625;53.624;10.106;2023-07-24T07:24:28;8.50;;;5.90;;
4921;SDS011;16625;53.624;10.106;2023-07-24T07:26:56;7.80;;;6.80;;
4921;SDS011;16625;53.624;10.106;2023-07-24T07:29:23;8.20;;;6.13;;
4921;SDS011;16625;53.624;10.106;2023-07-24T07:31:50;10.30;;;7.13;;
4921;SDS011;16625;53.624;10.106;2023-07-24T07:34:17;7.73;;;5.50;;
4921;SDS011;16625;53.624;10.106;2023-07-24T07:36:44;7.63;;;6.83;;
4921;SDS011;16625;53.624;10.106;2023-07-24T07:39:11;7.10;;;6.30;;
4921;SDS011;16625;53.624;10.106;2023-07-24T07:41:38;9.60;;;7.00;;
4921;SDS011;16625;53.624;10.106;2023-07-24T07:44:07;9.20;;;7.37;;
4921;SDS011;16625;53.624;10.106;2023-07-24T07:46:34;9.10;;;7.23;;
4921;SDS011;16625;53.624;10.106;2023-07-24T07:49:01;7.10;;;6.40;;
4921;SDS011;16625;53.624;10.106;2023-07-24T07:51:27;7.17;;;6.10;;
4921;SDS011;16625;53.624;10.106;2023-07-24T07:53:54;7.43;;;6.10;;
4921;SDS011;16625;53.624;10.106;2023-07-24T07:56:21;9.33;;;5.80;;
4921;SDS011;16625;53.624;10.106;2023-07-24T07:58:48;6.80;;;5.13;;
4921;SDS011;16625;53.624;10.106;2023-07-24T08:01:17;7.03;;;6.07;;
4921;SDS011;16625;53.624;10.106;2023-07-24T08:03:44;7.10;;;6.10;;
4921;SDS011;16625;53.624;10.106;2023-07-24T08:06:11;7.57;;;6.30;;
4921;SDS011;16625;53.624;10.106;2023-07-24T08:08:38;7.90;;;6.20;;
4921;SDS011;16625;53.624;10.106;2023-07-24T08:11:05;8.67;;;6.00;;
4921;SDS011;16625;53.624;10.106;2023-07-24T08:13:32;6.17;;;5.47;;
4921;SDS011;16625;53.624;10.106;2023-07-24T08:15:59;7.77;;;5.27;;
4921;SDS011;16625;53.624;10.106;2023-07-24T08:18:29;12.03;;;5.57;;
4921;SDS011;16625;53.624;10.106;2023-07-24T08:20:56;8.60;;;5.40;;
4921;SDS011;16625;53.624;10.106;2023-07-24T08:23:23;8.90;;;5.43;;
4921;SDS011;16625;53.624;10.106;2023-07-24T08:25:51;7.37;;;6.13;;
4921;SDS011;16625;53.624;10.106;2023-07-24T08:28:18;8.33;;;5.20;;
4921;SDS011;16625;53.624;10.106;2023-07-24T08:30:45;7.00;;;6.30;;
4921;SDS011;16625;53.624;10.106;2023-07-24T08:33:21;15.87;;;7.20;;
4921;SDS011;16625;53.624;10.106;2023-07-24T08:35:58;7.57;;;5.90;;
4921;SDS011;16625;53.624;10.106;2023-07-24T08:38:25;9.07;;;5.90;;
4921;SDS011;16625;53.624;10.106;2023-07-24T08:40:59;8.40;;;6.37;;
4921;SDS011;16625;53.624;10.106;2023-07-24T08:43:27;9.87;;;5.80;;
4921;SDS011;16625;53.624;10.106;2023-07-24T08:45:57;7.20;;;6.47;;
4921;SDS011;16625;53.624;10.106;2023-07-24T08:48:25;11.27;;;7.30;;
4921;SDS011;16625;53.624;10.106;2023-07-24T08:50:53;7.83;;;6.63;;
4921;SDS011;16625;53.624;10.106;2023-07-24T08:53:21;7.93;;;6.60;;
4921;SDS011;16625;53.624;10.106;2023-07-24T08:55:50;9.80;;;7.07;;
4921;SDS011;16625;53.624;10.106;2023-07-24T08:58:19;9.27;;;8.37;;
4921;SDS011;16625;53.624;10.106;2023-07-24T09:00:46;8.63;;;7.03;;
4921;SDS011;16625;53.624;10.106;2023-07-24T09:03:13;7.60;;;6.60;;
4921;SDS011;16625;53.624;10.106;2023-07-24T09:05:40;8.33;;;6.87;;
4921;SDS011;16625;53.624;10.106;2023-07-24T09:08:07;8.90;;;6.90;;
4921;SDS011;16625;53.624;10.106;2023-07-24T09:10:35;10.37;;;7.43;;
4921;SDS011;16625;53.624;10.106;2023-07-24T09:13:02;8.37;;;6.20;;
4921;SDS011;16625;53.624;10.106;2023-07-24T09:15:29;9.03;;;6.70;;
4921;SDS011;16625;53.624;10.106;2023-07-24T09:18:06;8.03;;;6.10;;
4921;SDS011;16625;53.624;10.106;2023-07-24T09:20:37;8.00;;;6.60;;
4921;SDS011;16625;53.624;10.106;2023-07-24T09:23:06;9.37;;;7.43;;
4921;SDS011;16625;53.624;10.106;2023-07-24T09:25:33;13.47;;;6.57;;
4921;SDS011;16625;53.624;10.106;2023-07-24T09:28:08;11.97;;;6.47;;
4921;SDS011;16625;53.624;10.106;2023-07-24T09:30:36;8.33;;;6.30;;
4921;SDS011;16625;53.624;10.106;2023-07-24T09:33:03;8.17;;;6.73;;
4921;SDS011;16625;53.624;10.106;2023-07-24T09:35:32;7.70;;;5.93;;
4921;SDS011;16625;53.624;10.106;2023-07-24T09:38:03;9.37;;;6.27;;
4921;SDS011;16625;53.624;10.106;2023-07-24T09:40:39;9.97;;;7.17;;
4921;SDS011;16625;53.624;10.106;2023-07-24T09:43:15;8.73;;;6.53;;
4921;SDS011;16625;53.624;10.106;2023-07-24T09:45:43;9.10;;;6.80;;
4921;SDS011;16625;53.624;10.106;2023-07-24T09:48:11;8.10;;;6.90;;
4921;SDS011;16625;53.624;10.106;2023-07-24T09:50:40;10.65;;;6.82;;
4921;SDS011;16625;53.624;10.106;2023-07-24T09:53:09;8.73;;;7.47;;
4921;SDS011;16625;53.624;10.106;2023-07-24T09:55:46;9.20;;;7.20;;
4921;SDS011;16625;53.624;10.106;2023-07-24T09:58:18;7.93;;;6.60;;
4921;SDS011;16625;53.624;10.106;2023-07-24T10:00:46;8.65;;;6.60;;
4921;SDS011;16625;53.624;10.106;2023-07-24T10:03:16;9.93;;;6.95;;
4921;SDS011;16625;53.624;10.106;2023-07-24T10:05:45;9.20;;;7.28;;
4921;SDS011;16625;53.624;10.106;2023-07-24T10:08:13;10.13;;;6.47;;
4921;SDS011;16625;53.624;10.106;2023-07-24T10:10:41;7.90;;;5.80;;
4921;SDS011;16625;53.624;10.106;2023-07-24T10:13:10;6.85;;;5.68;;
4921;SDS011;16625;53.624;10.106;2023-07-24T10:15:40;7.00;;;5.65;;
4921;SDS011;16625;53.624;10.106;2023-07-24T10:18:08;6.70;;;5.53;;
4921;SDS011;16625;53.624;10.106;2023-07-24T10:20:36;7.18;;;5.97;;
4921;SDS011;16625;53.624;10.106;2023-07-24T10:23:05;10.38;;;6.78;;
4921;SDS011;16625;53.624;10.106;2023-07-24T10:25:33;8.13;;;6.23;;
4921;SDS011;16625;53.624;10.106;2023-07-24T10:28:01;9.95;;;6.47;;
4921;SDS011;16625;53.624;10.106;2023-07-24T10:30:34;8.02;;;5.82;;
4921;SDS011;16625;53.624;10.106;2023-07-24T10:33:08;8.30;;;5.75;;
4921;SDS011;16625;53.624;10.106;2023-07-24T10:35:36;11.80;;;6.33;;
4921;SDS011;16625;53.624;10.106;2023-07-24T10:38:04;9.90;;;5.45;;
4921;SDS011;16625;53.624;10.106;2023-07-24T10:40:32;6.57;;;5.33;;
4921;SDS011;16625;53.624;10.106;2023-07-24T10:43:00;6.47;;;5.30;;
4921;SDS011;16625;53.624;10.106;2023-07-24T10:45:39;6.88;;;5.20;;
4921;SDS011;16625;53.624;10.106;2023-07-24T10:48:07;7.07;;;5.75;;
4921;SDS011;16625;53.624;10.106;2023-07-24T10:50:37;5.82;;;4.65;;
4921;SDS011;16625;53.624;10.106;2023-07-24T10:53:08;7.25;;;5.65;;
4921;SDS011;16625;53.624;10.106;2023-07-24T10:55:35;9.77;;;6.37;;
4921;SDS011;16625;53.624;10.106;2023-07-24T10:58:02;6.75;;;5.13;;
4921;SDS011;16625;53.624;10.106;2023-07-24T11:00:29;7.32;;;5.20;;
4921;SDS011;16625;53.624;10.106;2023-07-24T11:02:57;8.70;;;5.40;;
4921;SDS011;16625;53.624;10.106;2023-07-24T11:05:24;8.25;;;5.95;;
4921;SDS011;16625;53.624;10.106;2023-07-24T11:07:52;7.17;;;5.73;;
4921;SDS011;16625;53.624;10.106;2023-07-24T11:10:19;7.68;;;6.07;;
4921;SDS011;16625;53.624;10.106;2023-07-24T11:12:47;7.57;;;5.55;;
4921;SDS011;16625;53.624;10.106;2023-07-24T11:15:15;7.10;;;5.43;;
4921;SDS011;16625;53.624;10.106;2023-07-24T11:17:42;7.93;;;5.80;;
4921;SDS011;16625;53.624;10.106;2023-07-24T11:20:12;8.00;;;5.78;;
4921;SDS011;16625;53.624;10.106;2023-07-24T11:22:40;9.38;;;5.50;;
4921;SDS011;16625;53.624;10.106;2023-07-24T11:25:08;8.23;;;5.43;;
4921;SDS011;16625;53.624;10.106;2023-07-24T11:27:40;22.85;;;7.53;;
4921;SDS011;16625;53.624;10.106;2023-07-24T11:30:09;8.38;;;6.32;;
4921;SDS011;16625;53.624;10.106;2023-07-24T11:32:38;6.32;;;4.75;;
4921;SDS011;16625;53.624;10.106;2023-07-24T11:35:06;11.02;;;4.63;;
4921;SDS011;16625;53.624;10.106;2023-07-24T11:37:35;12.03;;;5.57;;
4921;SDS011;16625;53.624;10.106;2023-07-24T11:40:03;8.30;;;5.40;;
4921;SDS011;16625;53.624;10.106;2023-07-24T11:42:36;9.45;;;5.40;;
4921;SDS011;16625;53.624;10.106;2023-07-24T11:45:04;7.00;;;5.20;;
4921;SDS011;16625;53.624;10.106;2023-07-24T11:47:40;6.82;;;4.53;;
4921;SDS011;16625;53.624;10.106;2023-07-24T11:50:09;7.68;;;5.15;;
4921;SDS011;16625;53.624;10.106;2023-07-24T11:52:41;6.20;;;5.10;;
4921;SDS011;16625;53.624;10.106;2023-07-24T11:55:09;14.47;;;5.40;;
4921;SDS011;16625;53.624;10.106;2023-07-24T11:57:36;7.53;;;4.57;;
4921;SDS011;16625;53.624;10.106;2023-07-24T12:00:04;7.72;;;4.88;;
4921;SDS011;16625;53.624;10.106;2023-07-24T12:02:35;7.13;;;5.25;;
4921;SDS011;16625;53.624;10.106;2023-07-24T12:05:02;7.30;;;4.50;;
4921;SDS011;16625;53.624;10.106;2023-07-24T12:07:32;6.03;;;4.80;;
4921;SDS011;16625;53.624;10.106;2023-07-24T12:10:02;7.37;;;5.70;;
4921;SDS011;16625;53.624;10.106;2023-07-24T12:12:37;6.77;;;5.10;;
4921;SDS011;16625;53.624;10.106;2023-07-24T12:15:05;6.78;;;5.30;;
4921;SDS011;16625;53.624;10.106;2023-07-24T12:17:33;6.55;;;5.28;;
4921;SDS011;16625;53.624;10.106;2023-07-24T12:20:00;7.88;;;5.10;;
4921;SDS011;16625;53.624;10.106;2023-07-24T12:22:27;5.65;;;4.30;;
4921;SDS011;16625;53.624;10.106;2023-07-24T12:24:54;5.72;;;4.55;;
4921;SDS011;16625;53.624;10.106;2023-07-24T12:27:23;7.90;;;5.35;;
4921;SDS011;16625;53.624;10.106;2023-07-24T12:29:49;5.57;;;4.93;;
4921;SDS011;16625;53.624;10.106;2023-07-24T12:32:17;6.07;;;4.80;;
4921;SDS011;16625;53.624;10.106;2023-07-24T12:34:46;6.97;;;5.07;;
4921;SDS011;16625;53.624;10.106;2023-07-24T12:37:13;6.13;;;5.15;;
4921;SDS011;16625;53.624;10.106;2023-07-24T12:39:40;5.82;;;4.45;;
4921;SDS011;16625;53.624;10.106;2023-07-24T12:42:07;7.82;;;5.28;;
4921;SDS011;16625;53.624;10.106;2023-07-24T12:44:35;12.05;;;5.80;;
4921;SDS011;16625;53.624;10.106;2023-07-24T12:47:03;6.07;;;4.50;;
4921;SDS011;16625;53.624;10.106;2023-07-24T12:49:30;6.80;;;5.38;;
4921;SDS011;16625;53.624;10.106;2023-07-24T12:51:57;5.82;;;5.13;;
4921;SDS011;16625;53.624;10.106;2023-07-24T12:54:24;9.68;;;4.95;;
4921;SDS011;16625;53.624;10.106;2023-07-24T12:56:51;8.00;;;5.38;;
4921;SDS011;16625;53.624;10.106;2023-07-24T12:59:18;7.88;;;6.43;;
4921;SDS011;16625;53.624;10.106;2023-07-24T13:01:46;6.72;;;5.03;;
4921;SDS011;16625;53.624;10.106;2023-07-24T13:04:13;6.35;;;5.15;;
4921;SDS011;16625;53.624;10.106;2023-07-24T13:06:40;7.40;;;5.82;;
4921;SDS011;16625;53.624;10.106;2023-07-24T13:09:07;5.63;;;4.88;;
4921;SDS011;16625;53.624;10.106;2023-07-24T13:11:34;30.73;;;5.35;;
4921;SDS011;16625;53.624;10.106;2023-07-24T13:14:01;9.40;;;5.82;;
4921;SDS011;16625;53.624;10.106;2023-07-24T13:16:28;7.07;;;5.22;;
4921;SDS011;16625;53.624;10.106;2023-07-24T13:18:57;6.80;;;5.60;;
4921;SDS011;16625;53.624;10.106;2023-07-24T13:21:24;8.30;;;4.90;;
4921;SDS011;16625;53.624;10.106;2023-07-24T13:23:51;7.45;;;5.03;;
4921;SDS011;16625;53.624;10.106;2023-07-24T13:26:17;6.63;;;5.35;;
4921;SDS011;16625;53.624;10.106;2023-07-24T13:28:44;6.70;;;5.47;;
4921;SDS011;16625;53.624;10.106;2023-07-24T13:31:12;7.50;;;5.80;;
4921;SDS011;16625;53.624;10.106;2023-07-24T13:33:40;5.75;;;5.15;;
4921;SDS011;16625;53.624;10.106;2023-07-24T13:36:08;8.68;;;5.80;;
4921;SDS011;16625;53.624;10.106;2023-07-24T13:38:35;6.72;;;5.20;;
4921;SDS011;16625;53.624;10.106;2023-07-24T13:41:02;6.10;;;5.50;;
4921;SDS011;16625;53.624;10.106;2023-07-24T13:43:30;5.80;;;4.05;;
4921;SDS011;16625;53.624;10.106;2023-07-24T13:45:57;6.38;;;5.10;;
4921;SDS011;16625;53.624;10.106;2023-07-24T13:48:26;6.70;;;4.95;;
4921;SDS011;16625;53.624;10.106;2023-07-24T13:50:53;6.85;;;4.80;;
4921;SDS011;16625;53.624;10.106;2023-07-24T13:53:22;5.03;;;4.43;;
4921;SDS011;16625;53.624;10.106;2023-07-24T13:55:49;5.00;;;4.47;;
4921;SDS011;16625;53.624;10.106;2023-07-24T13:58:16;6.07;;;4.20;;
4921;SDS011;16625;53.624;10.106;2023-07-24T14:00:43;6.70;;;4.93;;
4921;SDS011;16625;53.624;10.106;2023-07-24T14:03:10;7.97;;;5.10;;
4921;SDS011;16625;53.624;10.106;2023-07-24T14:05:37;7.80;;;4.60;;
4921;SDS011;16625;53.624;10.106;2023-07-24T14:08:04;5.57;;;4.10;;
4921;SDS011;16625;53.624;10.106;2023-07-24T14:10:34;10.02;;;5.00;;
4921;SDS011;16625;53.624;10.106;2023-07-24T14:13:01;6.68;;;5.13;;
4921;SDS011;16625;53.624;10.106;2023-07-24T14:15:29;6.72;;;4.60;;
4921;SDS011;16625;53.624;10.106;2023-07-24T14:17:56;6.05;;;4.28;;
4921;SDS011;16625;53.624;10.106;2023-07-24T14:20:22;7.45;;;4.30;;
4921;SDS011;16625;53.624;10.106;2023-07-24T14:22:49;6.28;;;4.50;;
4921;SDS011;16625;53.624;10.106;2023-07-24T14:25:16;7.20;;;4.47;;
4921;SDS011;16625;53.624;10.106;2023-07-24T14:27:45;9.27;;;4.57;;
4921;SDS011;16625;53.624;10.106;2023-07-24T14:30:12;18.75;;;4.82;;
4921;SDS011;16625;53.624;10.106;2023-07-24T14:32:39;7.30;;;4.63;;
4921;SDS011;16625;53.624;10.106;2023-07-24T14:35:06;8.55;;;4.65;;
4921;SDS011;16625;53.624;10.106;2023-07-24T14:37:33;5.75;;;4.57;;
4921;SDS011;16625;53.624;10.106;2023-07-24T14:40:00;6.00;;;4.20;;
4921;SDS011;16625;53.624;10.106;2023-07-24T14:42:27;6.35;;;4.85;;
4921;SDS011;16625;53.624;10.106;2023-07-24T14:44:55;6.70;;;4.13;;
4921;SDS011;16625;53.624;10.106;2023-07-24T14:47:27;6.05;;;4.47;;
4921;SDS011;16625;53.624;10.106;2023-07-24T14:49:54;13.82;;;4.93;;
4921;SDS011;16625;53.624;10.106;2023-07-24T14:52:21;8.05;;;5.05;;